Time;durP1;ratioP1;P1;durP2;ratioP2;P2;SDS_P1;SDS_P2;PMS_P1;PMS_P2;Temp;Humidity;BMP_temperature;BMP_pressure;BME280_temperature;BME280_humidity;BME280_pressure;Samples;Min_cycle;Max_cycle;Signal;HPM_P1;HPM_P2
2021/12/30 00:01:09;;;;;;;36.03;18.13;;;;;;;;;;5047247;28;20028;-81
2021/12/30 00:03:36;;;;;;;33.90;18.03;;;;;;;;;;5050720;28;20022;-80
2021/12/30 00:06:02;;;;;;;29.33;16.03;;;;;;;;;;5036189;28;20037;-82
2021/12/30 00:08:29;;;;;;;28.40;15.33;;;;;;;;;;5035177;28;20420;-81
2021/12/30 00:10:55;;;;;;;26.80;15.57;;;;;;;;;;5034902;28;20494;-81
2021/12/30 00:13:22;;;;;;;30.27;15.73;;;;;;;;;;5017181;28;20025;-81
2021/12/30 00:15:48;;;;;;;23.93;14.37;;;;;;;;;;5035433;28;20026;-81
2021/12/30 00:18:15;;;;;;;26.10;14.90;;;;;;;;;;5033852;28;20068;-81
2021/12/30 00:20:41;;;;;;;28.97;15.10;;;;;;;;;;5016761;28;20056;-81
2021/12/30 00:23:09;;;;;;;26.00;14.03;;;;;;;;;;5016200;28;20112;-82
2021/12/30 00:25:39;;;;;;;24.80;14.20;;;;;;;;;;5015028;28;20021;-82
2021/12/30 00:28:12;;;;;;;24.57;14.37;;;;;;;;;;5033503;28;20088;-81
2021/12/30 00:30:39;;;;;;;23.33;13.20;;;;;;;;;;5034219;28;20108;-82
2021/12/30 00:33:05;;;;;;;25.53;13.53;;;;;;;;;;5033938;28;20025;-81
2021/12/30 00:35:32;;;;;;;24.93;13.60;;;;;;;;;;5033854;28;20423;-82
2021/12/30 00:37:58;;;;;;;31.90;14.80;;;;;;;;;;5034218;28;20029;-81
2021/12/30 00:40:25;;;;;;;20.87;14.50;;;;;;;;;;5034185;28;20024;-81
2021/12/30 00:42:51;;;;;;;23.20;13.90;;;;;;;;;;5034095;28;20124;-81
2021/12/30 00:45:17;;;;;;;20.47;12.53;;;;;;;;;;5016824;28;20053;-82
2021/12/30 00:47:44;;;;;;;26.00;12.63;;;;;;;;;;5033756;28;20100;-82
2021/12/30 00:50:10;;;;;;;22.47;11.67;;;;;;;;;;5033326;28;20052;-82
2021/12/30 00:52:36;;;;;;;21.50;11.50;;;;;;;;;;5033428;28;20031;-81
2021/12/30 00:55:04;;;;;;;20.27;12.00;;;;;;;;;;5034047;28;20029;-81
2021/12/30 00:57:30;;;;;;;23.97;12.77;;;;;;;;;;5033147;28;20017;-81
2021/12/30 00:59:56;;;;;;;20.83;10.63;;;;;;;;;;5030827;28;20468;-81
2021/12/30 01:02:23;;;;;;;19.17;10.90;;;;;;;;;;5015930;28;20400;-81
2021/12/30 01:04:49;;;;;;;20.97;10.80;;;;;;;;;;5033243;28;20021;-81
2021/12/30 01:07:15;;;;;;;23.40;10.33;;;;;;;;;;5036069;28;20538;-82
2021/12/30 01:09:42;;;;;;;23.13;10.80;;;;;;;;;;5031286;28;20493;-80
2021/12/30 01:12:08;;;;;;;19.63;10.43;;;;;;;;;;5032989;28;20041;-82
2021/12/30 01:14:36;;;;;;;26.93;11.30;;;;;;;;;;5016218;28;20025;-82
2021/12/30 01:20:00;;;;;;;24.73;9.90;;;;;;;;;;4994740;28;20042;-83
2021/12/30 01:22:27;;;;;;;28.43;11.63;;;;;;;;;;5010295;28;20026;-82
2021/12/30 01:24:53;;;;;;;21.60;11.20;;;;;;;;;;5013614;28;20034;-82
2021/12/30 01:27:20;;;;;;;21.30;11.33;;;;;;;;;;4994395;28;20101;-82
2021/12/30 01:29:47;;;;;;;27.43;12.40;;;;;;;;;;5004792;28;20072;-81
2021/12/30 01:32:13;;;;;;;44.93;15.80;;;;;;;;;;5014054;28;20104;-81
2021/12/30 01:34:39;;;;;;;25.90;13.93;;;;;;;;;;4997093;28;20058;-80
2021/12/30 01:37:06;;;;;;;27.60;13.63;;;;;;;;;;5011054;28;20062;-82
2021/12/30 01:39:33;;;;;;;24.73;12.17;;;;;;;;;;5013747;28;20038;-83
2021/12/30 01:42:00;;;;;;;25.27;13.80;;;;;;;;;;4995428;28;20061;-81
2021/12/30 01:44:28;;;;;;;23.67;13.30;;;;;;;;;;5013553;28;20042;-81
2021/12/30 01:46:55;;;;;;;24.33;12.60;;;;;;;;;;5007703;28;20401;-80
2021/12/30 01:49:23;;;;;;;20.37;11.90;;;;;;;;;;4987699;28;20506;-80
2021/12/30 01:51:49;;;;;;;21.90;11.27;;;;;;;;;;4995638;28;20030;-82
2021/12/30 01:54:16;;;;;;;23.57;12.23;;;;;;;;;;5013171;28;20354;-82
2021/12/30 01:56:42;;;;;;;24.80;12.57;;;;;;;;;;5010384;28;20033;-82
2021/12/30 01:59:19;;;;;;;32.27;14.67;;;;;;;;;;5012286;28;20018;-84
2021/12/30 02:01:45;;;;;;;33.23;15.73;;;;;;;;;;5011163;28;20417;-82
2021/12/30 02:04:12;;;;;;;36.00;16.13;;;;;;;;;;5011602;28;20079;-81
2021/12/30 02:06:39;;;;;;;41.47;16.67;;;;;;;;;;5010526;28;20076;-83
2021/12/30 02:09:05;;;;;;;36.60;16.57;;;;;;;;;;4996838;28;20477;-81
2021/12/30 02:11:31;;;;;;;33.07;15.67;;;;;;;;;;5005521;28;20022;-82
2021/12/30 02:13:58;;;;;;;31.47;14.80;;;;;;;;;;5020541;28;20334;-81
2021/12/30 02:16:24;;;;;;;29.50;15.23;;;;;;;;;;5023294;28;20033;-82
2021/12/30 02:18:52;;;;;;;32.20;15.63;;;;;;;;;;5026267;28;20046;-84
2021/12/30 02:21:18;;;;;;;33.00;15.20;;;;;;;;;;5009818;28;20026;-83
2021/12/30 02:23:45;;;;;;;33.37;15.87;;;;;;;;;;5011255;28;20026;-84
2021/12/30 02:26:15;;;;;;;29.27;15.43;;;;;;;;;;5037487;28;20025;-83
2021/12/30 02:28:42;;;;;;;36.90;15.53;;;;;;;;;;5029470;28;20113;-83
2021/12/30 02:31:14;;;;;;;35.20;16.63;;;;;;;;;;5037702;28;20087;-82
2021/12/30 02:33:41;;;;;;;35.33;14.83;;;;;;;;;;5038212;28;20033;-80
2021/12/30 02:36:31;;;;;;;38.27;14.60;;;;;;;;;;5030495;28;20041;-82
2021/12/30 02:38:59;;;;;;;40.23;17.23;;;;;;;;;;5017066;28;20096;-82
2021/12/30 02:41:27;;;;;;;51.83;18.00;;;;;;;;;;5050255;28;20290;-83
2021/12/30 02:43:54;;;;;;;46.90;18.20;;;;;;;;;;5031473;28;20064;-82
2021/12/30 02:46:22;;;;;;;40.00;17.73;;;;;;;;;;5031230;28;20448;-82
2021/12/30 02:48:52;;;;;;;38.33;16.77;;;;;;;;;;5021006;28;20040;-82
2021/12/30 02:51:19;;;;;;;41.33;17.90;;;;;;;;;;5016331;28;20171;-81
2021/12/30 02:53:46;;;;;;;43.77;17.07;;;;;;;;;;5034921;28;20149;-81
2021/12/30 02:56:12;;;;;;;37.17;15.73;;;;;;;;;;5014197;28;20037;-84
2021/12/30 02:58:38;;;;;;;38.67;17.13;;;;;;;;;;5018061;28;20029;-83
2021/12/30 03:01:07;;;;;;;40.67;17.27;;;;;;;;;;5033388;28;20025;-86
2021/12/30 03:03:34;;;;;;;37.47;18.63;;;;;;;;;;5032148;28;20040;-84
2021/12/30 03:06:01;;;;;;;38.07;17.30;;;;;;;;;;5034578;28;20034;-87
2021/12/30 03:14:48;;;;;;;41.83;19.73;;;;;;;;;;4956087;29;20035;-88
2021/12/30 03:17:17;;;;;;;52.00;21.23;;;;;;;;;;5000419;28;20038;-86
2021/12/30 03:19:43;;;;;;;45.07;22.30;;;;;;;;;;5037682;28;20130;-83
2021/12/30 03:22:09;;;;;;;59.33;23.50;;;;;;;;;;5017122;28;20029;-83
2021/12/30 03:24:36;;;;;;;51.47;26.90;;;;;;;;;;5032249;28;20457;-85
2021/12/30 03:27:05;;;;;;;57.07;26.77;;;;;;;;;;5028503;28;20037;-83
2021/12/30 03:29:32;;;;;;;65.23;27.87;;;;;;;;;;5014450;28;20532;-84
2021/12/30 03:31:58;;;;;;;66.67;29.43;;;;;;;;;;5026458;28;20084;-83
2021/12/30 03:34:25;;;;;;;70.10;33.77;;;;;;;;;;5014879;28;20477;-84
2021/12/30 03:36:51;;;;;;;80.67;37.30;;;;;;;;;;5032099;28;20037;-84
2021/12/30 03:39:17;;;;;;;71.17;35.80;;;;;;;;;;5010874;28;20030;-83
2021/12/30 03:41:43;;;;;;;71.07;36.47;;;;;;;;;;5028956;28;20037;-83
2021/12/30 03:44:10;;;;;;;87.47;44.50;;;;;;;;;;5029035;28;20440;-82
2021/12/30 03:46:36;;;;;;;101.90;54.80;;;;;;;;;;5013469;28;20116;-86
2021/12/30 03:49:05;;;;;;;114.07;63.30;;;;;;;;;;5008364;28;20112;-82
2021/12/30 03:51:38;;;;;;;110.23;57.47;;;;;;;;;;5013033;28;20029;-82
2021/12/30 03:54:04;;;;;;;103.67;54.43;;;;;;;;;;5018372;28;20357;-84
2021/12/30 03:56:31;;;;;;;111.47;55.13;;;;;;;;;;5013302;28;20348;-84
2021/12/30 03:58:57;;;;;;;106.90;56.17;;;;;;;;;;5026905;28;20034;-84
2021/12/30 04:01:25;;;;;;;99.90;54.20;;;;;;;;;;5031421;28;20060;-83
2021/12/30 04:03:51;;;;;;;96.00;50.80;;;;;;;;;;5030236;28;20033;-83
2021/12/30 04:06:19;;;;;;;99.30;54.13;;;;;;;;;;5014264;28;20053;-84
2021/12/30 04:08:46;;;;;;;94.73;48.00;;;;;;;;;;5023884;28;20061;-84
2021/12/30 04:11:12;;;;;;;89.17;51.47;;;;;;;;;;5011802;28;20076;-86
2021/12/30 04:13:39;;;;;;;95.10;52.33;;;;;;;;;;5024033;28;20040;-86
2021/12/30 04:16:06;;;;;;;97.47;56.47;;;;;;;;;;5026654;28;20084;-86
2021/12/30 04:18:34;;;;;;;104.90;56.30;;;;;;;;;;5031358;28;20048;-85
2021/12/30 04:21:00;;;;;;;93.67;52.27;;;;;;;;;;5030284;28;20034;-86
2021/12/30 04:23:27;;;;;;;94.80;54.57;;;;;;;;;;5015283;28;20114;-85
2021/12/30 04:25:53;;;;;;;94.77;51.50;;;;;;;;;;5030524;28;20025;-86
2021/12/30 04:28:19;;;;;;;94.73;47.00;;;;;;;;;;5030030;28;20116;-86
2021/12/30 04:30:45;;;;;;;92.60;53.47;;;;;;;;;;5040763;28;20026;-83
2021/12/30 04:33:12;;;;;;;98.13;53.03;;;;;;;;;;5021443;28;20033;-83
2021/12/30 04:35:38;;;;;;;99.22;55.88;;;;;;;;;;5012320;28;20037;-88
2021/12/30 04:38:04;;;;;;;96.03;52.33;;;;;;;;;;5029766;28;21314;-85
2021/12/30 04:40:31;;;;;;;101.57;54.85;;;;;;;;;;5024719;28;20578;-88
2021/12/30 04:42:57;;;;;;;93.55;54.20;;;;;;;;;;5025009;28;20115;-85
2021/12/30 04:45:29;;;;;;;89.93;53.42;;;;;;;;;;5025962;28;20029;-84
2021/12/30 04:47:55;;;;;;;94.50;53.78;;;;;;;;;;5023561;28;20469;-85
2021/12/30 04:50:21;;;;;;;102.35;55.65;;;;;;;;;;5007271;28;20079;-86
2021/12/30 04:52:48;;;;;;;95.15;55.72;;;;;;;;;;5010262;28;20060;-85
2021/12/30 04:55:14;;;;;;;106.90;56.67;;;;;;;;;;5016354;28;20037;-85
2021/12/30 04:57:40;;;;;;;101.10;58.20;;;;;;;;;;5009684;28;20056;-86
2021/12/30 05:00:08;;;;;;;104.97;61.35;;;;;;;;;;5028342;28;20104;-85
2021/12/30 05:02:56;;;;;;;110.57;63.95;;;;;;;;;;5007883;28;20022;-86
2021/12/30 05:05:21;;;;;;;115.03;67.35;;;;;;;;;;5026271;28;20068;-86
2021/12/30 05:07:47;;;;;;;122.70;69.20;;;;;;;;;;5025535;28;20052;-85
2021/12/30 05:10:13;;;;;;;125.32;70.07;;;;;;;;;;5003721;28;20029;-86
2021/12/30 05:12:40;;;;;;;129.43;77.78;;;;;;;;;;5026839;28;20556;-85
2021/12/30 05:15:06;;;;;;;137.65;76.07;;;;;;;;;;5007841;28;20075;-87
2021/12/30 05:17:34;;;;;;;127.13;75.35;;;;;;;;;;5008359;28;20034;-85
2021/12/30 05:20:01;;;;;;;124.25;75.95;;;;;;;;;;5010070;28;20087;-87
2021/12/30 05:22:27;;;;;;;122.22;73.40;;;;;;;;;;5024451;28;21543;-85
2021/12/30 05:24:54;;;;;;;134.15;76.38;;;;;;;;;;5007547;28;20101;-86
2021/12/30 05:27:20;;;;;;;141.90;81.05;;;;;;;;;;5010488;28;20366;-87
2021/12/30 05:29:47;;;;;;;162.00;95.43;;;;;;;;;;5010123;28;20171;-85
2021/12/30 05:32:13;;;;;;;200.13;123.13;;;;;;;;;;5007885;28;20604;-85
2021/12/30 05:34:40;;;;;;;237.93;144.43;;;;;;;;;;5026888;28;20445;-85
2021/12/30 05:37:06;;;;;;;247.23;151.00;;;;;;;;;;5023931;28;20029;-85
2021/12/30 05:39:35;;;;;;;239.30;144.27;;;;;;;;;;5019097;28;20029;-86
2021/12/30 05:42:02;;;;;;;264.60;152.95;;;;;;;;;;5022144;28;21263;-84
2021/12/30 05:44:28;;;;;;;270.05;154.98;;;;;;;;;;5019401;28;20033;-85
2021/12/30 05:46:54;;;;;;;268.92;163.30;;;;;;;;;;5006434;28;20495;-85
2021/12/30 05:49:21;;;;;;;274.27;160.93;;;;;;;;;;5003293;28;20044;-86
2021/12/30 05:51:47;;;;;;;279.83;166.20;;;;;;;;;;5008326;28;20037;-85
2021/12/30 05:54:13;;;;;;;257.77;161.68;;;;;;;;;;5024174;28;20064;-86
2021/12/30 05:56:40;;;;;;;254.88;158.10;;;;;;;;;;5025201;28;20025;-85
2021/12/30 05:59:06;;;;;;;258.45;153.38;;;;;;;;;;5010915;28;20049;-86
2021/12/30 06:01:32;;;;;;;222.13;133.68;;;;;;;;;;5028934;28;20052;-85
2021/12/30 06:04:01;;;;;;;208.68;125.13;;;;;;;;;;5005918;28;20033;-86
2021/12/30 06:06:27;;;;;;;207.27;128.65;;;;;;;;;;5022309;28;20034;-85
2021/12/30 06:08:55;;;;;;;223.95;131.43;;;;;;;;;;5008687;28;20464;-85
2021/12/30 06:11:22;;;;;;;202.88;124.35;;;;;;;;;;5029207;28;20024;-86
2021/12/30 06:13:48;;;;;;;194.75;121.75;;;;;;;;;;5011789;28;20167;-86
2021/12/30 06:16:14;;;;;;;187.95;118.25;;;;;;;;;;5029269;28;20033;-87
2021/12/30 06:18:41;;;;;;;189.90;114.82;;;;;;;;;;5009160;28;20052;-87
2021/12/30 06:21:07;;;;;;;177.80;107.57;;;;;;;;;;5004674;28;20108;-85
2021/12/30 06:23:33;;;;;;;169.75;104.45;;;;;;;;;;5026528;28;20080;-86
2021/12/30 06:26:00;;;;;;;155.02;100.97;;;;;;;;;;5025941;28;20095;-86
2021/12/30 06:28:26;;;;;;;160.45;99.93;;;;;;;;;;5007918;28;20342;-85
2021/12/30 06:30:53;;;;;;;152.52;98.50;;;;;;;;;;5028663;28;20115;-85
2021/12/30 06:33:19;;;;;;;153.30;94.57;;;;;;;;;;5026452;28;20042;-86
2021/12/30 06:35:45;;;;;;;151.88;93.80;;;;;;;;;;5019823;28;20049;-86
2021/12/30 06:38:12;;;;;;;148.00;91.57;;;;;;;;;;5011120;28;20034;-86
2021/12/30 06:40:39;;;;;;;144.63;90.18;;;;;;;;;;5028961;28;20091;-85
2021/12/30 06:43:05;;;;;;;136.80;87.20;;;;;;;;;;5021614;28;20030;-85
2021/12/30 06:45:31;;;;;;;150.20;90.43;;;;;;;;;;5023466;28;20033;-84
2021/12/30 06:47:59;;;;;;;147.38;87.75;;;;;;;;;;5013729;28;20033;-85
2021/12/30 06:50:30;;;;;;;142.73;89.03;;;;;;;;;;5015290;28;20033;-86
2021/12/30 06:53:16;;;;;;;140.98;90.43;;;;;;;;;;5037316;28;20124;-86
2021/12/30 06:55:44;;;;;;;147.18;92.53;;;;;;;;;;5045647;28;20081;-85
2021/12/30 06:58:11;;;;;;;155.25;93.88;;;;;;;;;;5017083;28;20029;-86
2021/12/30 07:00:37;;;;;;;145.80;91.25;;;;;;;;;;5029582;28;20068;-84
2021/12/30 07:03:07;;;;;;;153.57;95.85;;;;;;;;;;5024561;28;20124;-84
2021/12/30 07:05:38;;;;;;;159.20;95.93;;;;;;;;;;5026243;28;20025;-86
2021/12/30 07:08:05;;;;;;;150.70;93.85;;;;;;;;;;5023646;28;20124;-86
2021/12/30 07:10:32;;;;;;;152.07;94.20;;;;;;;;;;5029680;28;20026;-85
2021/12/30 07:12:58;;;;;;;154.77;95.13;;;;;;;;;;5035199;28;20147;-85
2021/12/30 07:15:24;;;;;;;169.18;99.82;;;;;;;;;;5017712;28;21145;-86
2021/12/30 07:17:51;;;;;;;162.90;99.35;;;;;;;;;;5015984;28;20124;-85
2021/12/30 07:20:18;;;;;;;170.57;104.43;;;;;;;;;;5016769;28;20439;-85
2021/12/30 07:22:44;;;;;;;182.25;113.22;;;;;;;;;;5034318;28;20048;-84
2021/12/30 07:25:16;;;;;;;222.70;134.15;;;;;;;;;;5031649;28;20059;-84
2021/12/30 07:27:44;;;;;;;239.70;145.00;;;;;;;;;;5034870;28;20036;-84
2021/12/30 07:30:11;;;;;;;216.10;133.93;;;;;;;;;;5000515;28;20504;-84
2021/12/30 07:32:37;;;;;;;227.40;141.05;;;;;;;;;;5014669;28;20041;-85
2021/12/30 07:35:04;;;;;;;223.80;141.50;;;;;;;;;;5033776;28;20091;-85
2021/12/30 07:37:30;;;;;;;230.85;142.15;;;;;;;;;;5039226;28;20504;-84
2021/12/30 07:39:56;;;;;;;230.18;139.55;;;;;;;;;;5033939;28;20084;-85
2021/12/30 07:42:23;;;;;;;207.45;133.95;;;;;;;;;;5037421;28;20029;-85
2021/12/30 07:44:49;;;;;;;214.38;133.00;;;;;;;;;;5014636;28;20026;-85
2021/12/30 07:47:16;;;;;;;209.85;134.02;;;;;;;;;;5025664;28;20101;-85
2021/12/30 07:49:42;;;;;;;208.27;134.15;;;;;;;;;;5023209;28;20060;-86
2021/12/30 07:52:08;;;;;;;207.82;132.20;;;;;;;;;;5029899;28;20025;-84
2021/12/30 07:54:35;;;;;;;200.63;129.63;;;;;;;;;;5029754;28;20272;-85
2021/12/30 07:57:02;;;;;;;201.95;129.02;;;;;;;;;;5027397;28;20480;-86
2021/12/30 07:59:29;;;;;;;188.80;125.03;;;;;;;;;;5027142;28;20028;-85
2021/12/30 08:01:56;;;;;;;198.68;124.45;;;;;;;;;;5007477;28;20021;-84
2021/12/30 08:04:22;;;;;;;186.20;121.65;;;;;;;;;;5008263;28;20025;-85
2021/12/30 08:06:48;;;;;;;193.43;120.50;;;;;;;;;;5029814;28;20030;-86
2021/12/30 08:09:16;;;;;;;178.75;116.15;;;;;;;;;;5037789;28;20053;-85
2021/12/30 08:11:45;;;;;;;188.05;117.57;;;;;;;;;;5021741;28;20029;-87
2021/12/30 08:14:19;;;;;;;191.40;120.25;;;;;;;;;;5033035;28;20033;-86
2021/12/30 08:16:45;;;;;;;187.82;118.18;;;;;;;;;;5011019;28;20017;-85
2021/12/30 08:19:12;;;;;;;188.90;119.32;;;;;;;;;;5036737;28;20056;-85
2021/12/30 08:21:42;;;;;;;189.07;119.18;;;;;;;;;;5024167;28;20049;-85
2021/12/30 08:24:12;;;;;;;199.18;124.35;;;;;;;;;;5024433;28;20121;-86
2021/12/30 08:26:39;;;;;;;186.32;119.80;;;;;;;;;;5025460;28;20353;-84
2021/12/30 08:29:06;;;;;;;190.35;118.00;;;;;;;;;;5016640;28;20033;-83
2021/12/30 08:31:36;;;;;;;193.35;117.32;;;;;;;;;;5036323;28;20174;-84
2021/12/30 08:34:03;;;;;;;179.60;111.82;;;;;;;;;;5005576;28;20032;-85
2021/12/30 08:36:29;;;;;;;189.05;112.80;;;;;;;;;;5029981;28;20037;-86
2021/12/30 08:38:56;;;;;;;186.68;112.57;;;;;;;;;;5011042;28;20042;-84
2021/12/30 08:41:22;;;;;;;184.52;111.55;;;;;;;;;;5023566;28;20520;-85
2021/12/30 08:43:49;;;;;;;179.43;110.25;;;;;;;;;;5012615;28;20096;-84
2021/12/30 08:46:17;;;;;;;180.80;108.53;;;;;;;;;;5029654;28;20060;-85
2021/12/30 08:48:44;;;;;;;187.25;111.47;;;;;;;;;;5027574;28;20469;-85
2021/12/30 08:51:12;;;;;;;182.57;109.03;;;;;;;;;;5035771;28;20006;-84
2021/12/30 08:53:40;;;;;;;183.60;106.43;;;;;;;;;;5035726;28;20037;-85
2021/12/30 08:56:08;;;;;;;185.48;112.40;;;;;;;;;;5032920;28;20038;-86
2021/12/30 08:58:35;;;;;;;183.80;107.03;;;;;;;;;;5025870;28;20037;-85
2021/12/30 09:01:02;;;;;;;171.63;102.03;;;;;;;;;;5034023;28;20088;-86
2021/12/30 09:03:28;;;;;;;177.80;104.35;;;;;;;;;;5031754;28;20034;-83
2021/12/30 09:05:54;;;;;;;181.70;102.72;;;;;;;;;;5030740;28;20029;-84
2021/12/30 09:08:20;;;;;;;178.70;101.85;;;;;;;;;;5028431;28;20034;-85
2021/12/30 09:10:49;;;;;;;183.75;103.53;;;;;;;;;;5031505;28;20037;-84
2021/12/30 09:13:16;;;;;;;203.32;104.63;;;;;;;;;;5011910;28;20041;-85
2021/12/30 09:15:42;;;;;;;190.65;103.15;;;;;;;;;;5010517;28;20031;-85
2021/12/30 09:18:10;;;;;;;206.43;106.72;;;;;;;;;;5028879;28;20120;-85
2021/12/30 09:20:38;;;;;;;210.45;106.32;;;;;;;;;;5010314;28;20030;-85
2021/12/30 09:23:06;;;;;;;202.23;103.00;;;;;;;;;;5014837;28;20091;-84
2021/12/30 09:25:40;;;;;;;200.40;102.87;;;;;;;;;;5010874;28;20425;-85
2021/12/30 09:28:14;;;;;;;201.20;99.83;;;;;;;;;;5011983;28;20026;-86
2021/12/30 09:30:42;;;;;;;191.80;96.77;;;;;;;;;;5032143;28;20025;-85
2021/12/30 09:33:09;;;;;;;209.70;102.53;;;;;;;;;;5032526;28;20033;-85
2021/12/30 09:35:36;;;;;;;191.13;97.93;;;;;;;;;;5028134;28;20071;-84
2021/12/30 09:38:02;;;;;;;201.50;100.03;;;;;;;;;;5030708;28;20536;-84
2021/12/30 09:40:29;;;;;;;186.13;96.83;;;;;;;;;;5027379;28;20105;-83
2021/12/30 09:43:01;;;;;;;188.57;93.97;;;;;;;;;;5025586;28;20105;-85
2021/12/30 09:45:28;;;;;;;197.47;95.60;;;;;;;;;;5028149;28;20022;-85
2021/12/30 09:47:56;;;;;;;194.80;94.93;;;;;;;;;;5029879;28;20128;-85
2021/12/30 09:50:24;;;;;;;207.67;94.13;;;;;;;;;;5007044;28;20041;-83
2021/12/30 09:52:51;;;;;;;195.83;94.60;;;;;;;;;;5026401;28;20091;-84
2021/12/30 09:55:17;;;;;;;201.57;95.53;;;;;;;;;;5031046;28;20025;-84
2021/12/30 09:57:45;;;;;;;210.90;99.17;;;;;;;;;;5010955;28;20037;-85
2021/12/30 10:00:13;;;;;;;202.80;96.10;;;;;;;;;;5024004;28;20468;-84
2021/12/30 10:02:43;;;;;;;204.00;99.37;;;;;;;;;;5026611;28;20545;-84
2021/12/30 10:05:11;;;;;;;210.40;100.20;;;;;;;;;;5025439;28;20060;-86
2021/12/30 10:07:41;;;;;;;224.30;98.80;;;;;;;;;;5026415;28;20037;-84
2021/12/30 10:10:26;;;;;;;210.63;99.60;;;;;;;;;;5025975;28;20212;-84
2021/12/30 10:12:53;;;;;;;227.47;105.63;;;;;;;;;;5025591;28;20112;-84
2021/12/30 10:15:24;;;;;;;220.07;104.53;;;;;;;;;;5025883;28;20052;-84
2021/12/30 10:18:00;;;;;;;212.50;102.90;;;;;;;;;;5010382;28;20081;-84
2021/12/30 10:20:28;;;;;;;204.57;100.50;;;;;;;;;;5027925;28;20050;-84
2021/12/30 10:22:55;;;;;;;213.63;106.43;;;;;;;;;;5008381;28;20033;-83
2021/12/30 10:25:31;;;;;;;214.30;108.80;;;;;;;;;;5029961;28;20409;-84
2021/12/30 10:28:17;;;;;;;233.90;114.50;;;;;;;;;;5029675;28;20030;-83
2021/12/30 10:30:43;;;;;;;219.20;105.90;;;;;;;;;;5027340;28;20029;-84
2021/12/30 10:33:10;;;;;;;226.27;108.93;;;;;;;;;;5026705;28;20083;-84
2021/12/30 10:35:37;;;;;;;236.87;114.63;;;;;;;;;;5001041;28;20022;-85
2021/12/30 10:38:08;;;;;;;228.67;111.20;;;;;;;;;;5006270;28;20504;-85
2021/12/30 10:40:36;;;;;;;228.63;112.40;;;;;;;;;;5025318;28;20034;-85
2021/12/30 10:43:28;;;;;;;230.27;115.37;;;;;;;;;;5026276;28;20048;-85
2021/12/30 10:46:02;;;;;;;229.00;111.27;;;;;;;;;;5011598;28;20068;-86
2021/12/30 10:48:30;;;;;;;214.70;107.60;;;;;;;;;;5015317;28;20105;-83
2021/12/30 10:51:12;;;;;;;207.10;101.67;;;;;;;;;;5014146;28;20033;-84
2021/12/30 10:53:38;;;;;;;200.67;103.20;;;;;;;;;;5013723;28;20033;-85
2021/12/30 10:56:23;;;;;;;198.83;102.07;;;;;;;;;;5029421;28;20030;-84
2021/12/30 10:58:50;;;;;;;209.80;102.13;;;;;;;;;;5033303;28;20029;-84
2021/12/30 11:01:21;;;;;;;202.47;98.27;;;;;;;;;;5018804;28;20473;-85
2021/12/30 11:03:57;;;;;;;196.40;101.27;;;;;;;;;;5015263;28;20509;-84
2021/12/30 11:06:23;;;;;;;244.17;115.23;;;;;;;;;;5028707;28;20083;-84
2021/12/30 11:09:03;;;;;;;225.43;108.37;;;;;;;;;;5015663;28;20059;-85
2021/12/30 11:11:30;;;;;;;219.03;107.50;;;;;;;;;;5040593;28;20029;-83
2021/12/30 11:13:57;;;;;;;245.20;120.47;;;;;;;;;;5025355;28;20033;-82
2021/12/30 11:16:23;;;;;;;258.77;118.90;;;;;;;;;;5026513;28;20030;-83
2021/12/30 11:18:50;;;;;;;269.83;123.57;;;;;;;;;;5031283;28;20046;-84
2021/12/30 11:21:57;;;;;;;283.80;127.97;;;;;;;;;;5014439;28;20443;-84
2021/12/30 11:24:24;;;;;;;265.23;127.00;;;;;;;;;;4968284;28;20026;-85
2021/12/30 11:26:51;;;;;;;280.97;132.57;;;;;;;;;;4970040;28;20027;-85
2021/12/30 11:29:17;;;;;;;295.00;134.83;;;;;;;;;;4992884;28;20033;-84
2021/12/30 11:31:44;;;;;;;298.40;135.93;;;;;;;;;;5012407;28;20031;-84
2021/12/30 11:34:10;;;;;;;282.60;132.27;;;;;;;;;;5030230;28;20029;-84
2021/12/30 11:36:36;;;;;;;287.67;135.60;;;;;;;;;;5005520;28;20052;-85
2021/12/30 11:39:32;;;;;;;287.60;136.30;;;;;;;;;;5000163;28;20029;-84
2021/12/30 11:42:09;;;;;;;326.77;142.70;;;;;;;;;;5010651;28;20056;-84
2021/12/30 11:44:37;;;;;;;319.57;144.83;;;;;;;;;;5027627;28;20083;-85
2021/12/30 11:47:04;;;;;;;332.40;145.00;;;;;;;;;;5028179;28;20403;-85
2021/12/30 11:50:03;;;;;;;316.37;144.80;;;;;;;;;;5025425;28;20030;-84
2021/12/30 11:52:47;;;;;;;301.90;131.47;;;;;;;;;;4987417;28;20439;-85
2021/12/30 11:55:35;;;;;;;334.67;144.93;;;;;;;;;;5013857;28;20384;-84
2021/12/30 11:58:19;;;;;;;327.43;146.77;;;;;;;;;;5022098;28;20075;-86
2021/12/30 12:00:46;;;;;;;320.27;147.17;;;;;;;;;;5034532;28;20025;-85
2021/12/30 12:03:31;;;;;;;351.43;150.07;;;;;;;;;;5004868;28;20080;-85
2021/12/30 12:05:57;;;;;;;308.67;142.80;;;;;;;;;;5030233;28;20048;-84
2021/12/30 12:08:28;;;;;;;337.13;147.30;;;;;;;;;;5015315;28;20052;-84
2021/12/30 12:11:15;;;;;;;325.23;144.30;;;;;;;;;;5018488;28;20041;-84
2021/12/30 12:13:42;;;;;;;348.37;147.67;;;;;;;;;;5014985;28;20096;-82
2021/12/30 12:16:09;;;;;;;331.00;143.43;;;;;;;;;;5033675;28;20037;-84
2021/12/30 12:18:35;;;;;;;334.60;145.40;;;;;;;;;;5011151;28;20045;-84
2021/12/30 12:21:06;;;;;;;302.43;139.97;;;;;;;;;;5013644;28;20435;-85
2021/12/30 12:23:42;;;;;;;317.43;140.57;;;;;;;;;;5007339;28;20025;-85
2021/12/30 12:26:11;;;;;;;297.43;134.37;;;;;;;;;;5042277;28;20025;-82
2021/12/30 12:28:38;;;;;;;307.83;137.27;;;;;;;;;;5023843;28;20050;-85
2021/12/30 12:31:06;;;;;;;302.60;137.93;;;;;;;;;;5048397;28;20029;-84
2021/12/30 12:33:34;;;;;;;306.57;135.20;;;;;;;;;;5045096;28;20041;-84
2021/12/30 12:36:02;;;;;;;319.93;138.90;;;;;;;;;;5029777;28;20034;-85
2021/12/30 12:38:37;;;;;;;329.63;142.70;;;;;;;;;;5030843;28;20038;-83
2021/12/30 12:41:16;;;;;;;317.63;142.30;;;;;;;;;;5013425;28;20060;-85
2021/12/30 12:43:43;;;;;;;324.90;141.70;;;;;;;;;;5024305;28;20080;-84
2021/12/30 12:46:09;;;;;;;322.93;143.43;;;;;;;;;;5016727;28;20049;-85
2021/12/30 12:48:39;;;;;;;380.50;157.10;;;;;;;;;;5033105;28;20036;-84
2021/12/30 12:51:16;;;;;;;385.50;151.17;;;;;;;;;;5012770;28;20489;-83
2021/12/30 12:53:44;;;;;;;342.97;148.57;;;;;;;;;;5032945;28;20025;-84
2021/12/30 12:56:13;;;;;;;351.73;149.33;;;;;;;;;;5034316;28;20035;-84
2021/12/30 12:58:43;;;;;;;326.47;143.47;;;;;;;;;;5010281;28;20092;-84
2021/12/30 13:01:10;;;;;;;338.13;147.17;;;;;;;;;;5013387;28;20061;-83
2021/12/30 13:03:37;;;;;;;379.30;157.70;;;;;;;;;;5025028;28;20087;-84
2021/12/30 13:06:05;;;;;;;361.93;149.57;;;;;;;;;;5033560;28;20033;-81
2021/12/30 13:08:32;;;;;;;345.03;149.33;;;;;;;;;;5011056;28;20030;-83
2021/12/30 13:10:59;;;;;;;370.10;159.93;;;;;;;;;;5008154;28;20029;-84
2021/12/30 13:13:51;;;;;;;343.50;150.43;;;;;;;;;;5038677;28;20033;-84
2021/12/30 13:16:24;;;;;;;377.77;160.17;;;;;;;;;;5009356;28;20049;-84
2021/12/30 13:19:03;;;;;;;367.37;159.37;;;;;;;;;;5004444;28;20445;-84
2021/12/30 13:21:38;;;;;;;404.53;167.73;;;;;;;;;;4995303;28;20354;-83
2021/12/30 13:24:04;;;;;;;352.33;152.63;;;;;;;;;;5013425;28;20466;-84
2021/12/30 13:26:37;;;;;;;373.80;157.83;;;;;;;;;;5013988;28;20108;-85
2021/12/30 13:29:03;;;;;;;378.93;162.90;;;;;;;;;;5012973;28;20061;-85
2021/12/30 13:31:32;;;;;;;398.93;165.80;;;;;;;;;;5013680;28;20079;-84
2021/12/30 13:34:00;;;;;;;423.47;175.57;;;;;;;;;;5013350;28;20038;-84
2021/12/30 13:36:28;;;;;;;424.60;172.90;;;;;;;;;;4991481;28;20109;-84
2021/12/30 13:39:08;;;;;;;410.83;174.10;;;;;;;;;;5007751;28;20480;-85
2021/12/30 13:41:35;;;;;;;416.00;172.63;;;;;;;;;;5013037;28;20022;-84
2021/12/30 13:44:10;;;;;;;377.47;163.93;;;;;;;;;;5009258;28;20480;-82
2021/12/30 13:46:36;;;;;;;387.87;163.50;;;;;;;;;;4990433;28;20030;-84
2021/12/30 13:49:03;;;;;;;481.47;195.40;;;;;;;;;;5017683;28;20033;-86
2021/12/30 13:51:31;;;;;;;383.83;167.43;;;;;;;;;;5003100;28;20064;-84
2021/12/30 13:53:58;;;;;;;465.83;200.20;;;;;;;;;;5018246;28;20125;-84
2021/12/30 13:56:28;;;;;;;424.63;180.70;;;;;;;;;;5013351;28;20095;-84
2021/12/30 13:58:59;;;;;;;494.80;203.57;;;;;;;;;;5010551;28;20030;-84
2021/12/30 14:01:28;;;;;;;459.43;196.47;;;;;;;;;;4990685;28;20331;-85
2021/12/30 14:04:05;;;;;;;454.67;207.90;;;;;;;;;;5010257;28;20477;-83
2021/12/30 14:06:32;;;;;;;513.30;221.70;;;;;;;;;;4995196;28;20084;-83
2021/12/30 14:09:00;;;;;;;589.63;244.60;;;;;;;;;;5013031;28;20555;-84
2021/12/30 14:11:30;;;;;;;566.40;241.70;;;;;;;;;;4994214;28;20037;-85
2021/12/30 14:13:59;;;;;;;666.43;263.30;;;;;;;;;;4990340;28;20116;-84
2021/12/30 14:16:31;;;;;;;861.00;319.17;;;;;;;;;;5004372;28;20060;-85
2021/12/30 14:18:58;;;;;;;1053.07;349.80;;;;;;;;;;5002458;28;20053;-83